sensor_id;sensor_type;location;lat;lon;timestamp;P1;durP1;ratioP1;P2;durP2;ratioP2
9388;SDS011;4734;52.778;6.798;2023-04-24T00:00:45;0.77;;;0.77;;
9388;SDS011;4734;52.778;6.798;2023-04-24T00:03:32;0.93;;;0.93;;
9388;SDS011;4734;52.778;6.798;2023-04-24T00:06:18;2.40;;;1.20;;
9388;SDS011;4734;52.778;6.798;2023-04-24T00:09:05;1.20;;;1.20;;
9388;SDS011;4734;52.778;6.798;2023-04-24T00:11:55;1.10;;;1.10;;
9388;SDS011;4734;52.778;6.798;2023-04-24T00:14:40;1.10;;;1.10;;
9388;SDS011;4734;52.778;6.798;2023-04-24T00:17:26;1.35;;;1.35;;
9388;SDS011;4734;52.778;6.798;2023-04-24T00:20:12;1.50;;;1.50;;
9388;SDS011;4734;52.778;6.798;2023-04-24T00:22:58;1.60;;;1.58;;
9388;SDS011;4734;52.778;6.798;2023-04-24T00:25:44;1.30;;;1.30;;
9388;SDS011;4734;52.778;6.798;2023-04-24T00:28:31;1.95;;;1.60;;
9388;SDS011;4734;52.778;6.798;2023-04-24T00:31:17;1.30;;;1.30;;
9388;SDS011;4734;52.778;6.798;2023-04-24T00:34:03;1.52;;;1.42;;
9388;SDS011;4734;52.778;6.798;2023-04-24T00:36:50;1.60;;;1.50;;
9388;SDS011;4734;52.778;6.798;2023-04-24T00:39:35;1.52;;;1.42;;
9388;SDS011;4734;52.778;6.798;2023-04-24T00:42:21;1.10;;;1.10;;
9388;SDS011;4734;52.778;6.798;2023-04-24T00:45:09;1.20;;;1.00;;
9388;SDS011;4734;52.778;6.798;2023-04-24T00:47:59;1.20;;;1.10;;
9388;SDS011;4734;52.778;6.798;2023-04-24T00:50:45;1.10;;;1.00;;
9388;SDS011;4734;52.778;6.798;2023-04-24T00:53:31;1.00;;;1.00;;
9388;SDS011;4734;52.778;6.798;2023-04-24T00:56:17;1.05;;;1.00;;
9388;SDS011;4734;52.778;6.798;2023-04-24T00:59:04;1.17;;;1.13;;
9388;SDS011;4734;52.778;6.798;2023-04-24T01:01:51;1.23;;;1.13;;
9388;SDS011;4734;52.778;6.798;2023-04-24T01:04:38;1.88;;;1.10;;
9388;SDS011;4734;52.778;6.798;2023-04-24T01:07:24;0.90;;;0.90;;
9388;SDS011;4734;52.778;6.798;2023-04-24T01:10:10;1.10;;;1.10;;
9388;SDS011;4734;52.778;6.798;2023-04-24T01:12:56;1.00;;;1.00;;
9388;SDS011;4734;52.778;6.798;2023-04-24T01:15:42;1.00;;;1.00;;
9388;SDS011;4734;52.778;6.798;2023-04-24T01:18:29;0.98;;;0.98;;
9388;SDS011;4734;52.778;6.798;2023-04-24T01:21:15;1.08;;;1.08;;
9388;SDS011;4734;52.778;6.798;2023-04-24T01:24:03;1.02;;;1.02;;
9388;SDS011;4734;52.778;6.798;2023-04-24T01:26:49;1.27;;;1.27;;
9388;SDS011;4734;52.778;6.798;2023-04-24T01:29:35;1.30;;;1.25;;
9388;SDS011;4734;52.778;6.798;2023-04-24T01:32:21;1.30;;;1.30;;
9388;SDS011;4734;52.778;6.798;2023-04-24T01:35:07;1.52;;;1.42;;
9388;SDS011;4734;52.778;6.798;2023-04-24T01:37:53;1.40;;;1.40;;
9388;SDS011;4734;52.778;6.798;2023-04-24T01:40:40;1.50;;;1.50;;
9388;SDS011;4734;52.778;6.798;2023-04-24T01:43:26;1.80;;;1.70;;
9388;SDS011;4734;52.778;6.798;2023-04-24T01:46:13;1.75;;;1.65;;
9388;SDS011;4734;52.778;6.798;2023-04-24T01:48:59;1.50;;;1.40;;
9388;SDS011;4734;52.778;6.798;2023-04-24T01:51:45;1.70;;;1.60;;
9388;SDS011;4734;52.778;6.798;2023-04-24T01:54:31;2.03;;;1.92;;
9388;SDS011;4734;52.778;6.798;2023-04-24T01:57:18;2.20;;;2.10;;
9388;SDS011;4734;52.778;6.798;2023-04-24T02:00:05;2.70;;;2.50;;
9388;SDS011;4734;52.778;6.798;2023-04-24T02:02:51;2.30;;;2.20;;
9388;SDS011;4734;52.778;6.798;2023-04-24T02:05:37;2.70;;;2.55;;
9388;SDS011;4734;52.778;6.798;2023-04-24T02:08:23;2.92;;;2.80;;
9388;SDS011;4734;52.778;6.798;2023-04-24T02:11:09;3.20;;;3.00;;
9388;SDS011;4734;52.778;6.798;2023-04-24T02:13:56;3.63;;;2.90;;
9388;SDS011;4734;52.778;6.798;2023-04-24T02:16:42;3.42;;;3.13;;
9388;SDS011;4734;52.778;6.798;2023-04-24T02:19:27;3.13;;;2.92;;
9388;SDS011;4734;52.778;6.798;2023-04-24T02:22:13;3.45;;;3.22;;
9388;SDS011;4734;52.778;6.798;2023-04-24T02:24:59;4.03;;;3.70;;
9388;SDS011;4734;52.778;6.798;2023-04-24T02:27:45;3.60;;;3.30;;
9388;SDS011;4734;52.778;6.798;2023-04-24T02:30:32;3.42;;;3.13;;
9388;SDS011;4734;52.778;6.798;2023-04-24T02:33:18;3.58;;;3.28;;
9388;SDS011;4734;52.778;6.798;2023-04-24T02:36:04;3.55;;;3.25;;
9388;SDS011;4734;52.778;6.798;2023-04-24T02:38:50;2.90;;;2.80;;
9388;SDS011;4734;52.778;6.798;2023-04-24T02:41:36;3.30;;;3.00;;
9388;SDS011;4734;52.778;6.798;2023-04-24T02:44:22;3.45;;;3.25;;
9388;SDS011;4734;52.778;6.798;2023-04-24T02:47:09;3.17;;;2.92;;
9388;SDS011;4734;52.778;6.798;2023-04-24T02:49:57;3.23;;;2.93;;
9388;SDS011;4734;52.778;6.798;2023-04-24T02:52:44;3.25;;;3.05;;
9388;SDS011;4734;52.778;6.798;2023-04-24T02:55:30;3.00;;;2.90;;
9388;SDS011;4734;52.778;6.798;2023-04-24T02:58:16;3.45;;;3.15;;
9388;SDS011;4734;52.778;6.798;2023-04-24T03:01:03;3.20;;;3.00;;
9388;SDS011;4734;52.778;6.798;2023-04-24T03:03:51;3.58;;;3.28;;
9388;SDS011;4734;52.778;6.798;2023-04-24T03:06:37;3.30;;;3.10;;
9388;SDS011;4734;52.778;6.798;2023-04-24T03:09:23;3.15;;;2.95;;
9388;SDS011;4734;52.778;6.798;2023-04-24T03:12:09;2.97;;;2.78;;
9388;SDS011;4734;52.778;6.798;2023-04-24T03:14:54;2.60;;;2.50;;
9388;SDS011;4734;52.778;6.798;2023-04-24T03:17:40;3.63;;;2.80;;
9388;SDS011;4734;52.778;6.798;2023-04-24T03:20:27;3.13;;;2.90;;
9388;SDS011;4734;52.778;6.798;2023-04-24T03:23:13;3.10;;;2.90;;
9388;SDS011;4734;52.778;6.798;2023-04-24T03:25:59;3.20;;;2.97;;
9388;SDS011;4734;52.778;6.798;2023-04-24T03:28:46;3.07;;;2.93;;
9388;SDS011;4734;52.778;6.798;2023-04-24T03:31:31;3.23;;;3.03;;
9388;SDS011;4734;52.778;6.798;2023-04-24T03:34:18;3.50;;;3.30;;
9388;SDS011;4734;52.778;6.798;2023-04-24T03:37:05;3.33;;;3.13;;
9388;SDS011;4734;52.778;6.798;2023-04-24T03:39:51;3.50;;;3.20;;
9388;SDS011;4734;52.778;6.798;2023-04-24T03:42:37;3.93;;;3.63;;
9388;SDS011;4734;52.778;6.798;2023-04-24T03:45:23;4.10;;;3.80;;
9388;SDS011;4734;52.778;6.798;2023-04-24T03:48:09;3.80;;;3.50;;
9388;SDS011;4734;52.778;6.798;2023-04-24T03:50:57;3.90;;;3.60;;
9388;SDS011;4734;52.778;6.798;2023-04-24T03:53:44;3.93;;;3.63;;
9388;SDS011;4734;52.778;6.798;2023-04-24T03:56:29;3.70;;;3.50;;
9388;SDS011;4734;52.778;6.798;2023-04-24T03:59:15;3.63;;;3.42;;
9388;SDS011;4734;52.778;6.798;2023-04-24T04:02:01;4.00;;;3.70;;
9388;SDS011;4734;52.778;6.798;2023-04-24T04:04:47;4.80;;;4.40;;
9388;SDS011;4734;52.778;6.798;2023-04-24T04:07:33;4.10;;;3.90;;
9388;SDS011;4734;52.778;6.798;2023-04-24T04:10:21;4.40;;;4.00;;
9388;SDS011;4734;52.778;6.798;2023-04-24T04:13:07;3.80;;;3.50;;
9388;SDS011;4734;52.778;6.798;2023-04-24T04:15:52;3.93;;;3.60;;
9388;SDS011;4734;52.778;6.798;2023-04-24T04:18:38;4.00;;;3.80;;
9388;SDS011;4734;52.778;6.798;2023-04-24T04:21:24;3.87;;;3.57;;
9388;SDS011;4734;52.778;6.798;2023-04-24T04:24:11;4.40;;;4.10;;
9388;SDS011;4734;52.778;6.798;2023-04-24T04:26:59;4.43;;;4.13;;
9388;SDS011;4734;52.778;6.798;2023-04-24T04:29:45;4.20;;;4.00;;
9388;SDS011;4734;52.778;6.798;2023-04-24T04:32:31;4.30;;;4.10;;
9388;SDS011;4734;52.778;6.798;2023-04-24T04:35:18;4.60;;;4.30;;
9388;SDS011;4734;52.778;6.798;2023-04-24T04:38:03;4.70;;;4.40;;
9388;SDS011;4734;52.778;6.798;2023-04-24T04:40:51;4.57;;;4.28;;
9388;SDS011;4734;52.778;6.798;2023-04-24T04:43:39;4.63;;;4.33;;
9388;SDS011;4734;52.778;6.798;2023-04-24T04:46:26;4.93;;;4.60;;
9388;SDS011;4734;52.778;6.798;2023-04-24T04:49:16;4.77;;;4.47;;
9388;SDS011;4734;52.778;6.798;2023-04-24T04:52:02;4.70;;;4.40;;
9388;SDS011;4734;52.778;6.798;2023-04-24T04:54:47;4.40;;;4.10;;
9388;SDS011;4734;52.778;6.798;2023-04-24T04:57:33;4.40;;;4.10;;
9388;SDS011;4734;52.778;6.798;2023-04-24T05:00:20;4.13;;;3.83;;
9388;SDS011;4734;52.778;6.798;2023-04-24T05:03:07;4.37;;;4.07;;
9388;SDS011;4734;52.778;6.798;2023-04-24T05:05:53;4.43;;;4.13;;
9388;SDS011;4734;52.778;6.798;2023-04-24T05:08:39;4.20;;;3.90;;
9388;SDS011;4734;52.778;6.798;2023-04-24T05:11:24;4.57;;;4.27;;
9388;SDS011;4734;52.778;6.798;2023-04-24T05:14:10;4.33;;;4.07;;
9388;SDS011;4734;52.778;6.798;2023-04-24T05:16:58;4.70;;;4.40;;
9388;SDS011;4734;52.778;6.798;2023-04-24T05:19:44;4.20;;;3.90;;
9388;SDS011;4734;52.778;6.798;2023-04-24T05:22:30;4.17;;;3.87;;
9388;SDS011;4734;52.778;6.798;2023-04-24T05:25:15;4.63;;;4.33;;
9388;SDS011;4734;52.778;6.798;2023-04-24T05:28:01;3.90;;;3.70;;
9388;SDS011;4734;52.778;6.798;2023-04-24T05:30:47;4.50;;;4.10;;
9388;SDS011;4734;52.778;6.798;2023-04-24T05:33:34;4.13;;;3.67;;
9388;SDS011;4734;52.778;6.798;2023-04-24T05:36:27;4.37;;;3.30;;
9388;SDS011;4734;52.778;6.798;2023-04-24T05:39:14;3.20;;;3.00;;
9388;SDS011;4734;52.778;6.798;2023-04-24T05:42:00;3.03;;;2.83;;
9388;SDS011;4734;52.778;6.798;2023-04-24T05:44:48;2.60;;;2.50;;
9388;SDS011;4734;52.778;6.798;2023-04-24T05:47:33;2.50;;;2.40;;
9388;SDS011;4734;52.778;6.798;2023-04-24T05:50:20;2.97;;;2.73;;
9388;SDS011;4734;52.778;6.798;2023-04-24T05:53:13;3.03;;;2.83;;
9388;SDS011;4734;52.778;6.798;2023-04-24T05:55:59;2.93;;;2.73;;
9388;SDS011;4734;52.778;6.798;2023-04-24T05:58:45;2.70;;;2.50;;
9388;SDS011;4734;52.778;6.798;2023-04-24T06:01:30;4.07;;;2.50;;
9388;SDS011;4734;52.778;6.798;2023-04-24T06:04:16;2.20;;;2.10;;
9388;SDS011;4734;52.778;6.798;2023-04-24T06:07:04;2.60;;;2.50;;
9388;SDS011;4734;52.778;6.798;2023-04-24T06:09:49;2.95;;;2.42;;
9388;SDS011;4734;52.778;6.798;2023-04-24T06:12:36;2.70;;;2.50;;
9388;SDS011;4734;52.778;6.798;2023-04-24T06:15:23;2.60;;;2.40;;
9388;SDS011;4734;52.778;6.798;2023-04-24T06:18:09;2.97;;;1.90;;
9388;SDS011;4734;52.778;6.798;2023-04-24T06:20:56;2.47;;;2.28;;
9388;SDS011;4734;52.778;6.798;2023-04-24T06:23:43;2.65;;;2.30;;
9388;SDS011;4734;52.778;6.798;2023-04-24T06:26:29;2.03;;;1.92;;
9388;SDS011;4734;52.778;6.798;2023-04-24T06:29:15;2.00;;;1.90;;
9388;SDS011;4734;52.778;6.798;2023-04-24T06:32:01;2.22;;;2.13;;
9388;SDS011;4734;52.778;6.798;2023-04-24T06:34:47;2.00;;;1.90;;
9388;SDS011;4734;52.778;6.798;2023-04-24T06:37:33;2.00;;;1.90;;
9388;SDS011;4734;52.778;6.798;2023-04-24T06:40:20;1.70;;;1.60;;
9388;SDS011;4734;52.778;6.798;2023-04-24T06:43:06;1.50;;;1.40;;
9388;SDS011;4734;52.778;6.798;2023-04-24T06:45:52;1.30;;;1.30;;
9388;SDS011;4734;52.778;6.798;2023-04-24T06:48:38;1.02;;;1.02;;
9388;SDS011;4734;52.778;6.798;2023-04-24T06:51:24;1.00;;;1.00;;
9388;SDS011;4734;52.778;6.798;2023-04-24T06:54:10;1.48;;;1.38;;
9388;SDS011;4734;52.778;6.798;2023-04-24T06:56:58;1.07;;;1.07;;
9388;SDS011;4734;52.778;6.798;2023-04-24T06:59:46;1.53;;;1.10;;
9388;SDS011;4734;52.778;6.798;2023-04-24T07:02:32;1.10;;;1.10;;
9388;SDS011;4734;52.778;6.798;2023-04-24T07:05:17;1.37;;;1.27;;
9388;SDS011;4734;52.778;6.798;2023-04-24T07:08:04;1.13;;;1.13;;
9388;SDS011;4734;52.778;6.798;2023-04-24T07:10:52;1.57;;;1.50;;
9388;SDS011;4734;52.778;6.798;2023-04-24T07:13:39;1.50;;;1.40;;
9388;SDS011;4734;52.778;6.798;2023-04-24T07:16:25;1.20;;;1.10;;
9388;SDS011;4734;52.778;6.798;2023-04-24T07:19:11;0.97;;;0.97;;
9388;SDS011;4734;52.778;6.798;2023-04-24T07:21:57;1.10;;;1.00;;
9388;SDS011;4734;52.778;6.798;2023-04-24T07:24:43;1.60;;;1.10;;
9388;SDS011;4734;52.778;6.798;2023-04-24T07:27:29;1.77;;;1.30;;
9388;SDS011;4734;52.778;6.798;2023-04-24T07:30:16;0.97;;;0.97;;
9388;SDS011;4734;52.778;6.798;2023-04-24T07:33:01;1.30;;;1.30;;
9388;SDS011;4734;52.778;6.798;2023-04-24T07:35:47;1.53;;;1.43;;
9388;SDS011;4734;52.778;6.798;2023-04-24T07:38:33;3.07;;;1.83;;
9388;SDS011;4734;52.778;6.798;2023-04-24T07:41:19;2.23;;;2.03;;
9388;SDS011;4734;52.778;6.798;2023-04-24T07:44:05;2.20;;;2.10;;
9388;SDS011;4734;52.778;6.798;2023-04-24T07:46:54;2.10;;;2.00;;
9388;SDS011;4734;52.778;6.798;2023-04-24T07:49:41;2.43;;;2.23;;
9388;SDS011;4734;52.778;6.798;2023-04-24T07:52:28;2.37;;;2.17;;
9388;SDS011;4734;52.778;6.798;2023-04-24T07:55:14;2.20;;;2.10;;
9388;SDS011;4734;52.778;6.798;2023-04-24T07:58:00;2.40;;;2.20;;
9388;SDS011;4734;52.778;6.798;2023-04-24T08:00:46;2.30;;;2.20;;
9388;SDS011;4734;52.778;6.798;2023-04-24T08:03:33;2.50;;;2.30;;
9388;SDS011;4734;52.778;6.798;2023-04-24T08:06:19;2.45;;;2.33;;
9388;SDS011;4734;52.778;6.798;2023-04-24T08:09:04;2.40;;;2.30;;
9388;SDS011;4734;52.778;6.798;2023-04-24T08:11:50;2.58;;;2.38;;
9388;SDS011;4734;52.778;6.798;2023-04-24T08:14:36;2.28;;;2.08;;
9388;SDS011;4734;52.778;6.798;2023-04-24T08:17:22;2.03;;;1.92;;
9388;SDS011;4734;52.778;6.798;2023-04-24T08:20:10;2.08;;;1.98;;
9388;SDS011;4734;52.778;6.798;2023-04-24T08:22:57;1.73;;;1.63;;
9388;SDS011;4734;52.778;6.798;2023-04-24T08:25:42;1.35;;;1.25;;
9388;SDS011;4734;52.778;6.798;2023-04-24T08:28:28;1.40;;;1.30;;
9388;SDS011;4734;52.778;6.798;2023-04-24T08:31:14;2.95;;;1.40;;
9388;SDS011;4734;52.778;6.798;2023-04-24T08:34:00;1.40;;;1.30;;
9388;SDS011;4734;52.778;6.798;2023-04-24T08:36:47;2.65;;;1.45;;
9388;SDS011;4734;52.778;6.798;2023-04-24T08:39:33;2.63;;;1.50;;
9388;SDS011;4734;52.778;6.798;2023-04-24T08:42:20;2.25;;;1.50;;
9388;SDS011;4734;52.778;6.798;2023-04-24T08:45:07;3.17;;;1.48;;
9388;SDS011;4734;52.778;6.798;2023-04-24T08:47:53;1.70;;;1.60;;
9388;SDS011;4734;52.778;6.798;2023-04-24T08:50:39;1.85;;;1.73;;
9388;SDS011;4734;52.778;6.798;2023-04-24T08:53:28;5.70;;;2.65;;
9388;SDS011;4734;52.778;6.798;2023-04-24T08:56:14;3.70;;;2.73;;
9388;SDS011;4734;52.778;6.798;2023-04-24T08:59:00;3.73;;;3.37;;
9388;SDS011;4734;52.778;6.798;2023-04-24T09:01:46;5.70;;;4.15;;
9388;SDS011;4734;52.778;6.798;2023-04-24T09:04:37;6.88;;;5.03;;
9388;SDS011;4734;52.778;6.798;2023-04-24T09:07:23;6.82;;;5.18;;
9388;SDS011;4734;52.778;6.798;2023-04-24T09:10:11;6.65;;;5.80;;
9388;SDS011;4734;52.778;6.798;2023-04-24T09:12:58;8.00;;;5.70;;
9388;SDS011;4734;52.778;6.798;2023-04-24T09:15:46;7.05;;;5.53;;
9388;SDS011;4734;52.778;6.798;2023-04-24T09:18:32;7.25;;;5.03;;
9388;SDS011;4734;52.778;6.798;2023-04-24T09:21:20;5.75;;;5.15;;
9388;SDS011;4734;52.778;6.798;2023-04-24T09:24:07;7.40;;;5.80;;
9388;SDS011;4734;52.778;6.798;2023-04-24T09:26:57;5.70;;;5.17;;
9388;SDS011;4734;52.778;6.798;2023-04-24T09:29:53;6.53;;;5.93;;
9388;SDS011;4734;52.778;6.798;2023-04-24T09:32:39;8.13;;;6.70;;
9388;SDS011;4734;52.778;6.798;2023-04-24T09:35:26;8.48;;;7.43;;
9388;SDS011;4734;52.778;6.798;2023-04-24T09:38:11;11.75;;;8.23;;
9388;SDS011;4734;52.778;6.798;2023-04-24T09:40:58;9.68;;;8.32;;
9388;SDS011;4734;52.778;6.798;2023-04-24T09:43:46;9.93;;;9.02;;
9388;SDS011;4734;52.778;6.798;2023-04-24T09:46:32;11.15;;;9.18;;
9388;SDS011;4734;52.778;6.798;2023-04-24T09:49:21;12.38;;;8.95;;
9388;SDS011;4734;52.778;6.798;2023-04-24T09:52:08;9.95;;;8.82;;
9388;SDS011;4734;52.778;6.798;2023-04-24T09:54:54;10.00;;;8.27;;
9388;SDS011;4734;52.778;6.798;2023-04-24T10:00:45;9.45;;;7.35;;
9388;SDS011;4734;52.778;6.798;2023-04-24T10:03:31;11.38;;;7.82;;
9388;SDS011;4734;52.778;6.798;2023-04-24T10:06:21;7.93;;;7.13;;
9388;SDS011;4734;52.778;6.798;2023-04-24T10:09:07;7.97;;;6.75;;
9388;SDS011;4734;52.778;6.798;2023-04-24T10:11:57;7.07;;;6.38;;
9388;SDS011;4734;52.778;6.798;2023-04-24T10:14:45;7.22;;;6.05;;
9388;SDS011;4734;52.778;6.798;2023-04-24T10:17:33;7.55;;;6.75;;
9388;SDS011;4734;52.778;6.798;2023-04-24T10:20:20;7.78;;;6.22;;
9388;SDS011;4734;52.778;6.798;2023-04-24T10:23:06;10.60;;;7.07;;
9388;SDS011;4734;52.778;6.798;2023-04-24T10:25:52;8.63;;;7.50;;
9388;SDS011;4734;52.778;6.798;2023-04-24T10:28:39;9.50;;;6.70;;
9388;SDS011;4734;52.778;6.798;2023-04-24T10:31:31;10.27;;;5.65;;
9388;SDS011;4734;52.778;6.798;2023-04-24T10:34:22;6.63;;;5.57;;
9388;SDS011;4734;52.778;6.798;2023-04-24T10:37:08;8.25;;;5.93;;
9388;SDS011;4734;52.778;6.798;2023-04-24T10:39:57;6.65;;;5.47;;
9388;SDS011;4734;52.778;6.798;2023-04-24T10:42:51;8.40;;;5.55;;
9388;SDS011;4734;52.778;6.798;2023-04-24T10:45:38;6.28;;;4.93;;
9388;SDS011;4734;52.778;6.798;2023-04-24T10:48:28;10.25;;;5.43;;
9388;SDS011;4734;52.778;6.798;2023-04-24T10:51:16;7.50;;;5.05;;
9388;SDS011;4734;52.778;6.798;2023-04-24T10:54:04;5.57;;;4.15;;
9388;SDS011;4734;52.778;6.798;2023-04-24T10:57:26;9.25;;;3.42;;
9388;SDS011;4734;52.778;6.798;2023-04-24T11:00:18;9.18;;;3.28;;
9388;SDS011;4734;52.778;6.798;2023-04-24T11:03:06;7.70;;;3.65;;
9388;SDS011;4734;52.778;6.798;2023-04-24T11:05:55;8.15;;;3.03;;
9388;SDS011;4734;52.778;6.798;2023-04-24T11:08:43;6.50;;;3.00;;
9388;SDS011;4734;52.778;6.798;2023-04-24T11:11:30;8.07;;;3.08;;
9388;SDS011;4734;52.778;6.798;2023-04-24T11:14:16;7.32;;;3.00;;
9388;SDS011;4734;52.778;6.798;2023-04-24T11:17:01;6.93;;;3.00;;
9388;SDS011;4734;52.778;6.798;2023-04-24T11:19:51;6.15;;;2.78;;
9388;SDS011;4734;52.778;6.798;2023-04-24T11:22:38;5.80;;;2.97;;
9388;SDS011;4734;52.778;6.798;2023-04-24T11:25:25;11.05;;;2.83;;
9388;SDS011;4734;52.778;6.798;2023-04-24T11:28:15;5.35;;;2.50;;
9388;SDS011;4734;52.778;6.798;2023-04-24T11:34:06;8.30;;;2.70;;
9388;SDS011;4734;52.778;6.798;2023-04-24T11:36:52;6.35;;;2.50;;
9388;SDS011;4734;52.778;6.798;2023-04-24T11:39:41;4.53;;;2.40;;
9388;SDS011;4734;52.778;6.798;2023-04-24T11:42:34;3.75;;;2.13;;
9388;SDS011;4734;52.778;6.798;2023-04-24T11:45:21;6.07;;;2.20;;
9388;SDS011;4734;52.778;6.798;2023-04-24T11:48:08;6.20;;;2.10;;
9388;SDS011;4734;52.778;6.798;2023-04-24T11:50:57;4.97;;;2.60;;
9388;SDS011;4734;52.778;6.798;2023-04-24T11:53:47;7.15;;;2.80;;
9388;SDS011;4734;52.778;6.798;2023-04-24T11:56:35;5.15;;;1.85;;
9388;SDS011;4734;52.778;6.798;2023-04-24T11:59:22;5.72;;;2.08;;
9388;SDS011;4734;52.778;6.798;2023-04-24T12:02:08;5.20;;;2.33;;
9388;SDS011;4734;52.778;6.798;2023-04-24T12:04:54;7.72;;;2.10;;
9388;SDS011;4734;52.778;6.798;2023-04-24T12:07:41;5.95;;;2.33;;
9388;SDS011;4734;52.778;6.798;2023-04-24T12:10:28;5.70;;;2.08;;
9388;SDS011;4734;52.778;6.798;2023-04-24T12:13:18;5.57;;;1.88;;
9388;SDS011;4734;52.778;6.798;2023-04-24T12:16:08;2.97;;;1.95;;
9388;SDS011;4734;52.778;6.798;2023-04-24T12:18:57;5.88;;;2.20;;
9388;SDS011;4734;52.778;6.798;2023-04-24T12:21:44;4.13;;;2.22;;
9388;SDS011;4734;52.778;6.798;2023-04-24T12:24:56;4.20;;;1.90;;
9388;SDS011;4734;52.778;6.798;2023-04-24T12:27:43;5.20;;;1.90;;
9388;SDS011;4734;52.778;6.798;2023-04-24T12:30:29;3.00;;;1.70;;
9388;SDS011;4734;52.778;6.798;2023-04-24T12:33:20;5.53;;;1.90;;
9388;SDS011;4734;52.778;6.798;2023-04-24T12:36:06;4.50;;;1.92;;
9388;SDS011;4734;52.778;6.798;2023-04-24T12:38:55;3.83;;;1.75;;
9388;SDS011;4734;52.778;6.798;2023-04-24T12:41:49;4.78;;;1.73;;
9388;SDS011;4734;52.778;6.798;2023-04-24T12:44:35;3.45;;;1.70;;
9388;SDS011;4734;52.778;6.798;2023-04-24T12:47:21;4.70;;;1.95;;
9388;SDS011;4734;52.778;6.798;2023-04-24T12:50:09;3.67;;;1.90;;
9388;SDS011;4734;52.778;6.798;2023-04-24T12:52:56;6.00;;;1.83;;
9388;SDS011;4734;52.778;6.798;2023-04-24T12:55:41;4.25;;;1.92;;
9388;SDS011;4734;52.778;6.798;2023-04-24T12:58:28;2.40;;;1.45;;
9388;SDS011;4734;52.778;6.798;2023-04-24T13:01:14;3.13;;;1.33;;
9388;SDS011;4734;52.778;6.798;2023-04-24T13:04:02;2.30;;;0.90;;
9388;SDS011;4734;52.778;6.798;2023-04-24T13:06:50;1.17;;;1.08;;
9388;SDS011;4734;52.778;6.798;2023-04-24T13:09:38;1.08;;;0.60;;
9388;SDS011;4734;52.778;6.798;2023-04-24T13:12:31;2.42;;;0.82;;
9388;SDS011;4734;52.778;6.798;2023-04-24T13:15:28;1.75;;;0.90;;
9388;SDS011;4734;52.778;6.798;2023-04-24T13:18:18;2.13;;;0.80;;
9388;SDS011;4734;52.778;6.798;2023-04-24T13:21:04;3.05;;;0.77;;
9388;SDS011;4734;52.778;6.798;2023-04-24T13:23:52;1.65;;;0.90;;
9388;SDS011;4734;52.778;6.798;2023-04-24T13:26:38;1.73;;;1.05;;
9388;SDS011;4734;52.778;6.798;2023-04-24T13:29:25;3.30;;;1.20;;
9388;SDS011;4734;52.778;6.798;2023-04-24T13:32:14;2.35;;;1.38;;
9388;SDS011;4734;52.778;6.798;2023-04-24T13:35:00;3.00;;;0.98;;
9388;SDS011;4734;52.778;6.798;2023-04-24T13:37:55;1.75;;;1.10;;
9388;SDS011;4734;52.778;6.798;2023-04-24T13:40:46;2.42;;;1.17;;
9388;SDS011;4734;52.778;6.798;2023-04-24T13:43:32;3.17;;;1.30;;
9388;SDS011;4734;52.778;6.798;2023-04-24T13:46:21;2.92;;;1.10;;
9388;SDS011;4734;52.778;6.798;2023-04-24T13:49:07;4.38;;;1.23;;
9388;SDS011;4734;52.778;6.798;2023-04-24T13:51:59;3.33;;;1.35;;
9388;SDS011;4734;52.778;6.798;2023-04-24T13:54:46;3.75;;;1.08;;
9388;SDS011;4734;52.778;6.798;2023-04-24T13:57:34;4.75;;;1.60;;
9388;SDS011;4734;52.778;6.798;2023-04-24T14:00:22;3.65;;;1.67;;
9388;SDS011;4734;52.778;6.798;2023-04-24T14:03:08;8.07;;;1.98;;
9388;SDS011;4734;52.778;6.798;2023-04-24T14:05:54;2.92;;;1.52;;
9388;SDS011;4734;52.778;6.798;2023-04-24T14:08:41;5.18;;;1.65;;
9388;SDS011;4734;52.778;6.798;2023-04-24T14:11:29;4.28;;;1.45;;
9388;SDS011;4734;52.778;6.798;2023-04-24T14:14:16;2.45;;;1.48;;
9388;SDS011;4734;52.778;6.798;2023-04-24T14:17:02;1.38;;;1.20;;
9388;SDS011;4734;52.778;6.798;2023-04-24T14:19:52;2.70;;;1.40;;
9388;SDS011;4734;52.778;6.798;2023-04-24T14:22:40;3.00;;;1.20;;
9388;SDS011;4734;52.778;6.798;2023-04-24T14:25:28;3.78;;;1.30;;
9388;SDS011;4734;52.778;6.798;2023-04-24T14:28:15;5.63;;;1.35;;
9388;SDS011;4734;52.778;6.798;2023-04-24T14:31:03;3.15;;;1.25;;
9388;SDS011;4734;52.778;6.798;2023-04-24T14:33:51;6.35;;;1.75;;
9388;SDS011;4734;52.778;6.798;2023-04-24T14:36:38;4.75;;;1.38;;
9388;SDS011;4734;52.778;6.798;2023-04-24T14:39:28;5.85;;;1.60;;
9388;SDS011;4734;52.778;6.798;2023-04-24T14:42:17;5.30;;;1.60;;
9388;SDS011;4734;52.778;6.798;2023-04-24T14:45:04;4.03;;;1.70;;
9388;SDS011;4734;52.778;6.798;2023-04-24T14:47:55;2.40;;;1.55;;
9388;SDS011;4734;52.778;6.798;2023-04-24T14:50:41;5.93;;;2.05;;
9388;SDS011;4734;52.778;6.798;2023-04-24T14:53:29;8.27;;;1.83;;
9388;SDS011;4734;52.778;6.798;2023-04-24T14:56:15;7.00;;;2.10;;
9388;SDS011;4734;52.778;6.798;2023-04-24T14:59:01;7.15;;;1.90;;
9388;SDS011;4734;52.778;6.798;2023-04-24T15:01:49;7.88;;;2.38;;
9388;SDS011;4734;52.778;6.798;2023-04-24T15:04:37;6.40;;;2.30;;
9388;SDS011;4734;52.778;6.798;2023-04-24T15:07:26;7.53;;;2.00;;
9388;SDS011;4734;52.778;6.798;2023-04-24T15:10:12;6.50;;;2.17;;
9388;SDS011;4734;52.778;6.798;2023-04-24T15:13:01;6.82;;;2.70;;
9388;SDS011;4734;52.778;6.798;2023-04-24T15:15:49;3.88;;;2.13;;
9388;SDS011;4734;52.778;6.798;2023-04-24T15:18:36;6.32;;;2.38;;
9388;SDS011;4734;52.778;6.798;2023-04-24T15:21:24;8.07;;;2.85;;
9388;SDS011;4734;52.778;6.798;2023-04-24T15:24:11;6.45;;;2.20;;
9388;SDS011;4734;52.778;6.798;2023-04-24T15:27:02;9.07;;;2.67;;
9388;SDS011;4734;52.778;6.798;2023-04-24T15:29:49;9.90;;;2.70;;
9388;SDS011;4734;52.778;6.798;2023-04-24T15:32:37;8.93;;;2.70;;
9388;SDS011;4734;52.778;6.798;2023-04-24T15:35:29;4.78;;;2.10;;
9388;SDS011;4734;52.778;6.798;2023-04-24T15:38:19;8.38;;;2.35;;
9388;SDS011;4734;52.778;6.798;2023-04-24T15:41:07;7.57;;;2.30;;
9388;SDS011;4734;52.778;6.798;2023-04-24T15:43:53;7.00;;;2.45;;
9388;SDS011;4734;52.778;6.798;2023-04-24T15:46:39;7.22;;;2.47;;
9388;SDS011;4734;52.778;6.798;2023-04-24T15:49:26;9.38;;;2.53;;
9388;SDS011;4734;52.778;6.798;2023-04-24T15:52:15;6.30;;;2.05;;
9388;SDS011;4734;52.778;6.798;2023-04-24T15:55:06;7.53;;;2.60;;
9388;SDS011;4734;52.778;6.798;2023-04-24T15:57:58;5.72;;;2.53;;
9388;SDS011;4734;52.778;6.798;2023-04-24T16:00:44;6.90;;;2.47;;
9388;SDS011;4734;52.778;6.798;2023-04-24T16:03:32;6.03;;;2.50;;
9388;SDS011;4734;52.778;6.798;2023-04-24T16:06:18;8.60;;;2.75;;
9388;SDS011;4734;52.778;6.798;2023-04-24T16:09:07;8.98;;;2.65;;
9388;SDS011;4734;52.778;6.798;2023-04-24T16:11:54;9.40;;;3.15;;
9388;SDS011;4734;52.778;6.798;2023-04-24T16:14:40;9.27;;;2.78;;
9388;SDS011;4734;52.778;6.798;2023-04-24T16:17:30;7.30;;;2.80;;
9388;SDS011;4734;52.778;6.798;2023-04-24T16:20:22;5.20;;;2.38;;
9388;SDS011;4734;52.778;6.798;2023-04-24T16:23:16;6.95;;;2.40;;
9388;SDS011;4734;52.778;6.798;2023-04-24T16:26:04;5.65;;;2.00;;
9388;SDS011;4734;52.778;6.798;2023-04-24T16:28:55;4.05;;;2.05;;
9388;SDS011;4734;52.778;6.798;2023-04-24T16:31:43;4.78;;;2.05;;
9388;SDS011;4734;52.778;6.798;2023-04-24T16:34:32;7.37;;;2.00;;
9388;SDS011;4734;52.778;6.798;2023-04-24T16:37:18;4.85;;;1.80;;
9388;SDS011;4734;52.778;6.798;2023-04-24T16:40:05;4.75;;;2.08;;
9388;SDS011;4734;52.778;6.798;2023-04-24T16:42:55;2.67;;;1.77;;
9388;SDS011;4734;52.778;6.798;2023-04-24T16:45:42;2.15;;;1.70;;
9388;SDS011;4734;52.778;6.798;2023-04-24T16:48:28;8.70;;;2.20;;
9388;SDS011;4734;52.778;6.798;2023-04-24T16:51:18;3.80;;;1.77;;
9388;SDS011;4734;52.778;6.798;2023-04-24T16:54:07;5.35;;;1.85;;
9388;SDS011;4734;52.778;6.798;2023-04-24T16:56:55;4.30;;;1.70;;
9388;SDS011;4734;52.778;6.798;2023-04-24T16:59:42;3.53;;;1.73;;
9388;SDS011;4734;52.778;6.798;2023-04-24T17:02:29;4.53;;;1.88;;
9388;SDS011;4734;52.778;6.798;2023-04-24T17:05:15;3.58;;;1.70;;
9388;SDS011;4734;52.778;6.798;2023-04-24T17:08:03;4.97;;;1.70;;
9388;SDS011;4734;52.778;6.798;2023-04-24T17:10:52;5.70;;;2.20;;
9388;SDS011;4734;52.778;6.798;2023-04-24T17:13:39;6.15;;;1.92;;
9388;SDS011;4734;52.778;6.798;2023-04-24T17:16:27;5.75;;;2.30;;
9388;SDS011;4734;52.778;6.798;2023-04-24T17:19:15;5.80;;;1.90;;
9388;SDS011;4734;52.778;6.798;2023-04-24T17:22:01;4.85;;;1.92;;
9388;SDS011;4734;52.778;6.798;2023-04-24T17:24:47;8.75;;;2.38;;